Terminal Aerodrome Forecast
Issued by NWS Billings, MT

Home | Current Version | Previous Version | Text Only | Print | Product List | Glossary Off
Versions: 1 2 3 4 5 6 7 8 9 10 11 12 13 14 15 16

000
FTUS45 KBYZ 230536
TAFMLS
TAF
KMLS 230536Z 2306/2406 23008KT P6SM FEW230
     FM231600 26015G24KT P6SM SCT070
     FM240100 29009KT P6SM SCT100
     FM240400 31007KT P6SM BKN100=

USA.gov is the U.S. government's official web portal to all federal, state and local government web resources and services.